sensor_id;sensor_type;location;lat;lon;timestamp;P1;durP1;ratioP1;P2;durP2;ratioP2
11418;SDS011;32800;44.876;13.880;2023-04-25T00:02:05;4.20;;;2.10;;
11418;SDS011;32800;44.876;13.880;2023-04-25T00:04:31;2.77;;;2.00;;
11418;SDS011;32800;44.876;13.880;2023-04-25T00:06:58;3.53;;;2.13;;
11418;SDS011;32800;44.876;13.880;2023-04-25T00:09:26;3.43;;;1.87;;
11418;SDS011;32800;44.876;13.880;2023-04-25T00:11:52;7.40;;;2.00;;
11418;SDS011;32800;44.876;13.880;2023-04-25T00:14:18;3.13;;;2.30;;
11418;SDS011;32800;44.876;13.880;2023-04-25T00:16:43;3.73;;;2.23;;
11418;SDS011;32800;44.876;13.880;2023-04-25T00:19:09;5.33;;;2.20;;
11418;SDS011;32800;44.876;13.880;2023-04-25T00:21:35;2.90;;;2.10;;
11418;SDS011;32800;44.876;13.880;2023-04-25T00:24:02;3.60;;;1.97;;
11418;SDS011;32800;44.876;13.880;2023-04-25T00:26:28;3.27;;;2.00;;
11418;SDS011;32800;44.876;13.880;2023-04-25T00:28:54;5.30;;;2.03;;
11418;SDS011;32800;44.876;13.880;2023-04-25T00:31:19;3.50;;;2.00;;
11418;SDS011;32800;44.876;13.880;2023-04-25T00:33:45;2.80;;;2.03;;
11418;SDS011;32800;44.876;13.880;2023-04-25T00:36:10;2.17;;;1.97;;
11418;SDS011;32800;44.876;13.880;2023-04-25T00:38:36;2.30;;;2.00;;
11418;SDS011;32800;44.876;13.880;2023-04-25T00:41:04;2.20;;;1.60;;
11418;SDS011;32800;44.876;13.880;2023-04-25T00:43:31;3.23;;;2.00;;
11418;SDS011;32800;44.876;13.880;2023-04-25T00:45:57;2.40;;;1.90;;
11418;SDS011;32800;44.876;13.880;2023-04-25T00:48:25;4.23;;;2.17;;
11418;SDS011;32800;44.876;13.880;2023-04-25T00:50:52;2.33;;;2.10;;
11418;SDS011;32800;44.876;13.880;2023-04-25T00:53:19;2.90;;;2.03;;
11418;SDS011;32800;44.876;13.880;2023-04-25T00:55:46;2.37;;;1.90;;
11418;SDS011;32800;44.876;13.880;2023-04-25T00:58:12;2.83;;;1.60;;
11418;SDS011;32800;44.876;13.880;2023-04-25T01:00:37;2.20;;;1.60;;
11418;SDS011;32800;44.876;13.880;2023-04-25T01:03:03;2.30;;;1.80;;
11418;SDS011;32800;44.876;13.880;2023-04-25T01:05:29;3.53;;;1.90;;
11418;SDS011;32800;44.876;13.880;2023-04-25T01:07:55;2.37;;;1.77;;
11418;SDS011;32800;44.876;13.880;2023-04-25T01:10:20;3.43;;;1.73;;
11418;SDS011;32800;44.876;13.880;2023-04-25T01:12:46;3.00;;;2.03;;
11418;SDS011;32800;44.876;13.880;2023-04-25T01:15:12;3.00;;;1.90;;
11418;SDS011;32800;44.876;13.880;2023-04-25T01:17:38;3.43;;;1.70;;
11418;SDS011;32800;44.876;13.880;2023-04-25T01:20:05;2.57;;;1.83;;
11418;SDS011;32800;44.876;13.880;2023-04-25T01:22:32;2.60;;;1.63;;
11418;SDS011;32800;44.876;13.880;2023-04-25T01:24:58;3.47;;;2.00;;
11418;SDS011;32800;44.876;13.880;2023-04-25T01:27:25;2.73;;;1.60;;
11418;SDS011;32800;44.876;13.880;2023-04-25T01:29:50;2.20;;;1.83;;
11418;SDS011;32800;44.876;13.880;2023-04-25T01:32:16;2.23;;;1.60;;
11418;SDS011;32800;44.876;13.880;2023-04-25T01:34:42;1.87;;;1.50;;
11418;SDS011;32800;44.876;13.880;2023-04-25T01:37:08;2.10;;;1.60;;
11418;SDS011;32800;44.876;13.880;2023-04-25T01:39:34;3.07;;;2.10;;
11418;SDS011;32800;44.876;13.880;2023-04-25T01:41:59;3.70;;;1.83;;
11418;SDS011;32800;44.876;13.880;2023-04-25T01:44:25;3.03;;;1.63;;
11418;SDS011;32800;44.876;13.880;2023-04-25T01:46:51;3.60;;;2.63;;
11418;SDS011;32800;44.876;13.880;2023-04-25T01:49:16;2.97;;;2.10;;
11418;SDS011;32800;44.876;13.880;2023-04-25T01:51:42;2.80;;;1.73;;
11418;SDS011;32800;44.876;13.880;2023-04-25T01:54:08;2.43;;;1.90;;
11418;SDS011;32800;44.876;13.880;2023-04-25T01:56:36;1.90;;;1.53;;
11418;SDS011;32800;44.876;13.880;2023-04-25T01:59:03;2.37;;;1.90;;
11418;SDS011;32800;44.876;13.880;2023-04-25T02:01:29;2.90;;;1.60;;
11418;SDS011;32800;44.876;13.880;2023-04-25T02:03:55;2.80;;;1.63;;
11418;SDS011;32800;44.876;13.880;2023-04-25T02:06:20;3.63;;;1.93;;
11418;SDS011;32800;44.876;13.880;2023-04-25T02:08:46;2.27;;;1.63;;
11418;SDS011;32800;44.876;13.880;2023-04-25T02:11:11;1.93;;;1.73;;
11418;SDS011;32800;44.876;13.880;2023-04-25T02:13:37;3.63;;;1.87;;
11418;SDS011;32800;44.876;13.880;2023-04-25T02:16:02;2.67;;;1.90;;
11418;SDS011;32800;44.876;13.880;2023-04-25T02:18:28;2.30;;;1.80;;
11418;SDS011;32800;44.876;13.880;2023-04-25T02:20:53;2.40;;;1.50;;
11418;SDS011;32800;44.876;13.880;2023-04-25T02:23:19;2.43;;;1.70;;
11418;SDS011;32800;44.876;13.880;2023-04-25T02:25:45;2.30;;;1.80;;
11418;SDS011;32800;44.876;13.880;2023-04-25T02:28:11;1.90;;;1.60;;
11418;SDS011;32800;44.876;13.880;2023-04-25T02:30:36;2.43;;;1.67;;
11418;SDS011;32800;44.876;13.880;2023-04-25T02:33:02;2.83;;;1.70;;
11418;SDS011;32800;44.876;13.880;2023-04-25T02:35:28;2.20;;;1.43;;
11418;SDS011;32800;44.876;13.880;2023-04-25T02:37:53;3.07;;;1.60;;
11418;SDS011;32800;44.876;13.880;2023-04-25T02:40:19;3.87;;;1.60;;
11418;SDS011;32800;44.876;13.880;2023-04-25T02:42:44;2.80;;;1.70;;
11418;SDS011;32800;44.876;13.880;2023-04-25T02:45:11;1.40;;;1.30;;
11418;SDS011;32800;44.876;13.880;2023-04-25T02:47:36;3.07;;;1.57;;
11418;SDS011;32800;44.876;13.880;2023-04-25T02:50:02;2.90;;;1.70;;
11418;SDS011;32800;44.876;13.880;2023-04-25T02:52:28;1.57;;;1.47;;
11418;SDS011;32800;44.876;13.880;2023-04-25T02:54:54;2.33;;;1.70;;
11418;SDS011;32800;44.876;13.880;2023-04-25T02:57:19;2.37;;;1.80;;
11418;SDS011;32800;44.876;13.880;2023-04-25T02:59:45;2.43;;;1.47;;
11418;SDS011;32800;44.876;13.880;2023-04-25T03:02:10;2.40;;;1.67;;
11418;SDS011;32800;44.876;13.880;2023-04-25T03:04:36;3.13;;;2.00;;
11418;SDS011;32800;44.876;13.880;2023-04-25T03:07:01;1.87;;;1.50;;
11418;SDS011;32800;44.876;13.880;2023-04-25T03:09:27;2.80;;;1.70;;
11418;SDS011;32800;44.876;13.880;2023-04-25T03:11:53;4.30;;;1.50;;
11418;SDS011;32800;44.876;13.880;2023-04-25T03:14:18;3.17;;;1.77;;
11418;SDS011;32800;44.876;13.880;2023-04-25T03:16:44;2.10;;;1.60;;
11418;SDS011;32800;44.876;13.880;2023-04-25T03:19:10;1.37;;;1.20;;
11418;SDS011;32800;44.876;13.880;2023-04-25T03:21:35;3.70;;;1.50;;
11418;SDS011;32800;44.876;13.880;2023-04-25T03:24:02;2.30;;;1.70;;
11418;SDS011;32800;44.876;13.880;2023-04-25T03:26:28;1.97;;;1.70;;
11418;SDS011;32800;44.876;13.880;2023-04-25T03:28:54;2.70;;;1.47;;
11418;SDS011;32800;44.876;13.880;2023-04-25T03:31:20;1.63;;;1.53;;
11418;SDS011;32800;44.876;13.880;2023-04-25T03:33:45;1.60;;;1.40;;
11418;SDS011;32800;44.876;13.880;2023-04-25T03:36:11;1.93;;;1.57;;
11418;SDS011;32800;44.876;13.880;2023-04-25T03:38:37;1.97;;;1.43;;
11418;SDS011;32800;44.876;13.880;2023-04-25T03:41:02;2.53;;;1.53;;
11418;SDS011;32800;44.876;13.880;2023-04-25T03:43:28;1.97;;;1.37;;
11418;SDS011;32800;44.876;13.880;2023-04-25T03:45:53;2.03;;;1.50;;
11418;SDS011;32800;44.876;13.880;2023-04-25T03:48:19;2.37;;;1.50;;
11418;SDS011;32800;44.876;13.880;2023-04-25T03:50:47;2.07;;;1.57;;
11418;SDS011;32800;44.876;13.880;2023-04-25T03:53:13;2.10;;;1.60;;
11418;SDS011;32800;44.876;13.880;2023-04-25T03:55:38;1.83;;;1.50;;
11418;SDS011;32800;44.876;13.880;2023-04-25T03:58:04;1.57;;;1.47;;
11418;SDS011;32800;44.876;13.880;2023-04-25T04:00:30;3.93;;;1.90;;
11418;SDS011;32800;44.876;13.880;2023-04-25T04:02:55;3.53;;;1.73;;
11418;SDS011;32800;44.876;13.880;2023-04-25T04:05:21;2.37;;;1.50;;
11418;SDS011;32800;44.876;13.880;2023-04-25T04:07:47;1.57;;;1.37;;
11418;SDS011;32800;44.876;13.880;2023-04-25T04:10:12;1.87;;;1.53;;
11418;SDS011;32800;44.876;13.880;2023-04-25T04:12:38;1.80;;;1.70;;
11418;SDS011;32800;44.876;13.880;2023-04-25T04:15:04;1.37;;;1.27;;
11418;SDS011;32800;44.876;13.880;2023-04-25T04:17:31;2.23;;;1.50;;
11418;SDS011;32800;44.876;13.880;2023-04-25T04:19:56;2.70;;;1.70;;
11418;SDS011;32800;44.876;13.880;2023-04-25T04:22:23;2.03;;;1.50;;
11418;SDS011;32800;44.876;13.880;2023-04-25T04:24:48;6.60;;;1.47;;
11418;SDS011;32800;44.876;13.880;2023-04-25T04:27:15;2.77;;;1.50;;
11418;SDS011;32800;44.876;13.880;2023-04-25T04:29:42;2.67;;;1.30;;
11418;SDS011;32800;44.876;13.880;2023-04-25T04:32:08;2.00;;;1.53;;
11418;SDS011;32800;44.876;13.880;2023-04-25T04:34:34;2.13;;;1.50;;
11418;SDS011;32800;44.876;13.880;2023-04-25T04:37:00;1.57;;;1.30;;
11418;SDS011;32800;44.876;13.880;2023-04-25T04:39:25;2.53;;;1.33;;
11418;SDS011;32800;44.876;13.880;2023-04-25T04:41:51;3.03;;;1.40;;
11418;SDS011;32800;44.876;13.880;2023-04-25T04:44:17;1.67;;;1.40;;
11418;SDS011;32800;44.876;13.880;2023-04-25T04:46:42;2.70;;;1.70;;
11418;SDS011;32800;44.876;13.880;2023-04-25T04:49:09;1.83;;;1.53;;
11418;SDS011;32800;44.876;13.880;2023-04-25T04:51:35;1.93;;;1.30;;
11418;SDS011;32800;44.876;13.880;2023-04-25T04:54:02;2.33;;;1.50;;
11418;SDS011;32800;44.876;13.880;2023-04-25T04:56:28;2.07;;;1.40;;
11418;SDS011;32800;44.876;13.880;2023-04-25T04:58:56;1.57;;;1.40;;
11418;SDS011;32800;44.876;13.880;2023-04-25T05:01:25;2.47;;;1.60;;
11418;SDS011;32800;44.876;13.880;2023-04-25T05:03:51;1.80;;;1.40;;
11418;SDS011;32800;44.876;13.880;2023-04-25T05:06:18;4.83;;;1.47;;
11418;SDS011;32800;44.876;13.880;2023-04-25T05:08:44;2.03;;;1.40;;
11418;SDS011;32800;44.876;13.880;2023-04-25T05:11:10;3.27;;;1.30;;
11418;SDS011;32800;44.876;13.880;2023-04-25T05:13:36;5.60;;;1.63;;
11418;SDS011;32800;44.876;13.880;2023-04-25T05:16:01;2.63;;;1.57;;
11418;SDS011;32800;44.876;13.880;2023-04-25T05:18:27;2.60;;;1.30;;
11418;SDS011;32800;44.876;13.880;2023-04-25T05:20:53;2.33;;;1.40;;
11418;SDS011;32800;44.876;13.880;2023-04-25T05:23:18;2.00;;;1.33;;
11418;SDS011;32800;44.876;13.880;2023-04-25T05:25:44;1.70;;;1.60;;
11418;SDS011;32800;44.876;13.880;2023-04-25T05:28:10;2.10;;;1.40;;
11418;SDS011;32800;44.876;13.880;2023-04-25T05:30:37;2.27;;;1.30;;
11418;SDS011;32800;44.876;13.880;2023-04-25T05:33:02;3.10;;;1.30;;
11418;SDS011;32800;44.876;13.880;2023-04-25T05:35:28;2.57;;;1.57;;
11418;SDS011;32800;44.876;13.880;2023-04-25T05:37:53;3.40;;;1.40;;
11418;SDS011;32800;44.876;13.880;2023-04-25T05:40:19;1.73;;;1.47;;
11418;SDS011;32800;44.876;13.880;2023-04-25T05:42:44;4.70;;;1.30;;
11418;SDS011;32800;44.876;13.880;2023-04-25T05:45:10;2.33;;;1.37;;
11418;SDS011;32800;44.876;13.880;2023-04-25T05:47:35;4.93;;;1.60;;
11418;SDS011;32800;44.876;13.880;2023-04-25T05:50:01;1.57;;;1.20;;
11418;SDS011;32800;44.876;13.880;2023-04-25T05:52:27;2.23;;;1.50;;
11418;SDS011;32800;44.876;13.880;2023-04-25T05:54:52;1.83;;;1.40;;
11418;SDS011;32800;44.876;13.880;2023-04-25T05:57:19;2.07;;;1.40;;
11418;SDS011;32800;44.876;13.880;2023-04-25T05:59:49;2.43;;;1.40;;
11418;SDS011;32800;44.876;13.880;2023-04-25T06:02:14;1.40;;;1.27;;
11418;SDS011;32800;44.876;13.880;2023-04-25T06:04:40;1.50;;;1.40;;
11418;SDS011;32800;44.876;13.880;2023-04-25T06:07:06;1.73;;;1.40;;
11418;SDS011;32800;44.876;13.880;2023-04-25T06:09:31;1.93;;;1.53;;
11418;SDS011;32800;44.876;13.880;2023-04-25T06:11:57;2.03;;;1.60;;
11418;SDS011;32800;44.876;13.880;2023-04-25T06:14:22;2.37;;;1.90;;
11418;SDS011;32800;44.876;13.880;2023-04-25T06:16:48;1.90;;;1.67;;
11418;SDS011;32800;44.876;13.880;2023-04-25T06:19:13;1.83;;;1.50;;
11418;SDS011;32800;44.876;13.880;2023-04-25T06:21:39;2.43;;;1.70;;
11418;SDS011;32800;44.876;13.880;2023-04-25T06:24:04;2.47;;;1.60;;
11418;SDS011;32800;44.876;13.880;2023-04-25T06:26:30;2.10;;;1.70;;
11418;SDS011;32800;44.876;13.880;2023-04-25T06:28:55;2.03;;;1.60;;
11418;SDS011;32800;44.876;13.880;2023-04-25T06:31:21;2.57;;;1.80;;
11418;SDS011;32800;44.876;13.880;2023-04-25T06:33:46;3.27;;;1.60;;
11418;SDS011;32800;44.876;13.880;2023-04-25T06:36:13;3.43;;;1.80;;
11418;SDS011;32800;44.876;13.880;2023-04-25T06:38:39;2.60;;;1.80;;
11418;SDS011;32800;44.876;13.880;2023-04-25T06:41:04;2.43;;;1.73;;
11418;SDS011;32800;44.876;13.880;2023-04-25T06:43:30;2.37;;;1.60;;
11418;SDS011;32800;44.876;13.880;2023-04-25T06:45:58;3.30;;;1.80;;
11418;SDS011;32800;44.876;13.880;2023-04-25T06:48:25;2.23;;;1.90;;
11418;SDS011;32800;44.876;13.880;2023-04-25T06:50:51;1.80;;;1.70;;
11418;SDS011;32800;44.876;13.880;2023-04-25T06:53:16;3.10;;;2.10;;
11418;SDS011;32800;44.876;13.880;2023-04-25T06:55:42;2.20;;;1.90;;
11418;SDS011;32800;44.876;13.880;2023-04-25T06:58:07;2.63;;;2.00;;
11418;SDS011;32800;44.876;13.880;2023-04-25T07:00:33;2.20;;;1.80;;
11418;SDS011;32800;44.876;13.880;2023-04-25T07:02:58;4.40;;;2.10;;
11418;SDS011;32800;44.876;13.880;2023-04-25T07:05:24;3.30;;;1.90;;
11418;SDS011;32800;44.876;13.880;2023-04-25T07:07:49;2.47;;;2.00;;
11418;SDS011;32800;44.876;13.880;2023-04-25T07:10:15;3.37;;;2.27;;
11418;SDS011;32800;44.876;13.880;2023-04-25T07:12:40;2.83;;;2.10;;
11418;SDS011;32800;44.876;13.880;2023-04-25T07:15:06;2.20;;;1.90;;
11418;SDS011;32800;44.876;13.880;2023-04-25T07:17:35;3.17;;;2.10;;
11418;SDS011;32800;44.876;13.880;2023-04-25T07:20:00;3.03;;;2.10;;
11418;SDS011;32800;44.876;13.880;2023-04-25T07:22:26;2.73;;;2.13;;
11418;SDS011;32800;44.876;13.880;2023-04-25T07:24:51;3.53;;;1.90;;
11418;SDS011;32800;44.876;13.880;2023-04-25T07:27:18;2.33;;;1.83;;
11418;SDS011;32800;44.876;13.880;2023-04-25T07:29:44;3.17;;;2.20;;
11418;SDS011;32800;44.876;13.880;2023-04-25T07:32:09;3.13;;;2.10;;
11418;SDS011;32800;44.876;13.880;2023-04-25T07:34:37;2.50;;;1.93;;
11418;SDS011;32800;44.876;13.880;2023-04-25T07:37:03;3.17;;;1.93;;
11418;SDS011;32800;44.876;13.880;2023-04-25T07:39:29;3.27;;;1.80;;
11418;SDS011;32800;44.876;13.880;2023-04-25T07:41:55;2.63;;;1.77;;
11418;SDS011;32800;44.876;13.880;2023-04-25T07:44:21;2.67;;;2.10;;
11418;SDS011;32800;44.876;13.880;2023-04-25T07:46:46;4.17;;;1.90;;
11418;SDS011;32800;44.876;13.880;2023-04-25T07:49:12;3.43;;;1.90;;
11418;SDS011;32800;44.876;13.880;2023-04-25T07:51:37;2.77;;;1.80;;
11418;SDS011;32800;44.876;13.880;2023-04-25T07:54:03;3.70;;;2.10;;
11418;SDS011;32800;44.876;13.880;2023-04-25T07:56:33;1.93;;;1.77;;
11418;SDS011;32800;44.876;13.880;2023-04-25T07:58:58;2.90;;;1.90;;
11418;SDS011;32800;44.876;13.880;2023-04-25T08:01:24;2.73;;;1.70;;
11418;SDS011;32800;44.876;13.880;2023-04-25T08:03:49;2.93;;;1.70;;
11418;SDS011;32800;44.876;13.880;2023-04-25T08:06:15;2.40;;;1.77;;
11418;SDS011;32800;44.876;13.880;2023-04-25T08:08:40;3.30;;;2.07;;
11418;SDS011;32800;44.876;13.880;2023-04-25T08:11:06;4.33;;;2.13;;
11418;SDS011;32800;44.876;13.880;2023-04-25T08:13:32;2.87;;;2.20;;
11418;SDS011;32800;44.876;13.880;2023-04-25T08:15:57;4.20;;;2.33;;
11418;SDS011;32800;44.876;13.880;2023-04-25T08:18:22;3.77;;;2.23;;
11418;SDS011;32800;44.876;13.880;2023-04-25T08:20:48;3.87;;;2.30;;
11418;SDS011;32800;44.876;13.880;2023-04-25T08:23:14;2.20;;;2.00;;
11418;SDS011;32800;44.876;13.880;2023-04-25T08:25:39;5.40;;;2.20;;
11418;SDS011;32800;44.876;13.880;2023-04-25T08:28:05;4.10;;;2.60;;
11418;SDS011;32800;44.876;13.880;2023-04-25T08:30:31;3.17;;;2.17;;
11418;SDS011;32800;44.876;13.880;2023-04-25T08:32:56;2.53;;;1.97;;
11418;SDS011;32800;44.876;13.880;2023-04-25T08:35:22;3.57;;;2.40;;
11418;SDS011;32800;44.876;13.880;2023-04-25T08:37:48;3.20;;;2.13;;
11418;SDS011;32800;44.876;13.880;2023-04-25T08:40:14;4.80;;;2.23;;
11418;SDS011;32800;44.876;13.880;2023-04-25T08:42:43;3.37;;;2.20;;
11418;SDS011;32800;44.876;13.880;2023-04-25T08:45:09;2.67;;;2.23;;
11418;SDS011;32800;44.876;13.880;2023-04-25T08:47:35;3.37;;;2.17;;
11418;SDS011;32800;44.876;13.880;2023-04-25T08:50:03;3.53;;;2.37;;
11418;SDS011;32800;44.876;13.880;2023-04-25T08:52:32;3.13;;;2.40;;
11418;SDS011;32800;44.876;13.880;2023-04-25T08:55:02;4.10;;;2.10;;
11418;SDS011;32800;44.876;13.880;2023-04-25T08:57:29;3.43;;;2.17;;
11418;SDS011;32800;44.876;13.880;2023-04-25T08:59:57;3.00;;;2.27;;
11418;SDS011;32800;44.876;13.880;2023-04-25T09:02:22;3.67;;;2.20;;
11418;SDS011;32800;44.876;13.880;2023-04-25T09:04:49;3.87;;;2.40;;
11418;SDS011;32800;44.876;13.880;2023-04-25T09:07:15;5.00;;;2.30;;
11418;SDS011;32800;44.876;13.880;2023-04-25T09:09:43;2.97;;;2.07;;
11418;SDS011;32800;44.876;13.880;2023-04-25T09:12:09;3.83;;;2.10;;
11418;SDS011;32800;44.876;13.880;2023-04-25T09:14:35;2.70;;;2.10;;
11418;SDS011;32800;44.876;13.880;2023-04-25T09:17:01;3.23;;;2.40;;
11418;SDS011;32800;44.876;13.880;2023-04-25T09:19:29;3.00;;;2.10;;
11418;SDS011;32800;44.876;13.880;2023-04-25T09:22:00;2.60;;;2.30;;
11418;SDS011;32800;44.876;13.880;2023-04-25T09:26:59;2.67;;;2.10;;
11418;SDS011;32800;44.876;13.880;2023-04-25T09:29:34;2.83;;;2.20;;
11418;SDS011;32800;44.876;13.880;2023-04-25T09:34:52;2.53;;;2.03;;
11418;SDS011;32800;44.876;13.880;2023-04-25T09:39:48;3.30;;;2.30;;
11418;SDS011;32800;44.876;13.880;2023-04-25T09:42:24;2.77;;;2.17;;
11418;SDS011;32800;44.876;13.880;2023-04-25T09:44:53;2.80;;;2.17;;
11418;SDS011;32800;44.876;13.880;2023-04-25T09:47:20;2.57;;;1.77;;
11418;SDS011;32800;44.876;13.880;2023-04-25T09:49:49;2.83;;;1.90;;
11418;SDS011;32800;44.876;13.880;2023-04-25T09:52:17;2.43;;;1.83;;
11418;SDS011;32800;44.876;13.880;2023-04-25T09:54:47;2.67;;;2.13;;
11418;SDS011;32800;44.876;13.880;2023-04-25T09:57:18;2.93;;;1.83;;
11418;SDS011;32800;44.876;13.880;2023-04-25T09:59:51;2.60;;;1.97;;
11418;SDS011;32800;44.876;13.880;2023-04-25T10:02:19;2.33;;;1.80;;
11418;SDS011;32800;44.876;13.880;2023-04-25T10:04:52;4.33;;;1.90;;
11418;SDS011;32800;44.876;13.880;2023-04-25T10:07:23;2.17;;;1.80;;
11418;SDS011;32800;44.876;13.880;2023-04-25T10:09:58;2.40;;;1.80;;
11418;SDS011;32800;44.876;13.880;2023-04-25T10:12:28;2.37;;;2.03;;
11418;SDS011;32800;44.876;13.880;2023-04-25T10:14:56;1.90;;;1.70;;
11418;SDS011;32800;44.876;13.880;2023-04-25T10:17:23;2.00;;;1.63;;
11418;SDS011;32800;44.876;13.880;2023-04-25T10:19:49;2.50;;;1.80;;
11418;SDS011;32800;44.876;13.880;2023-04-25T10:22:36;2.83;;;1.80;;
11418;SDS011;32800;44.876;13.880;2023-04-25T10:25:01;2.03;;;1.83;;
11418;SDS011;32800;44.876;13.880;2023-04-25T10:27:29;2.13;;;1.70;;
11418;SDS011;32800;44.876;13.880;2023-04-25T10:30:13;1.90;;;1.70;;
11418;SDS011;32800;44.876;13.880;2023-04-25T10:32:41;2.00;;;1.67;;
11418;SDS011;32800;44.876;13.880;2023-04-25T10:37:37;2.10;;;1.90;;
11418;SDS011;32800;44.876;13.880;2023-04-25T10:40:09;1.70;;;1.60;;
11418;SDS011;32800;44.876;13.880;2023-04-25T10:42:35;1.93;;;1.57;;
11418;SDS011;32800;44.876;13.880;2023-04-25T10:45:01;2.17;;;1.90;;
11418;SDS011;32800;44.876;13.880;2023-04-25T10:47:36;2.17;;;1.73;;
11418;SDS011;32800;44.876;13.880;2023-04-25T10:50:09;2.40;;;1.80;;
11418;SDS011;32800;44.876;13.880;2023-04-25T10:52:36;2.03;;;1.70;;
11418;SDS011;32800;44.876;13.880;2023-04-25T10:55:04;4.03;;;1.97;;
11418;SDS011;32800;44.876;13.880;2023-04-25T10:59:59;2.17;;;1.63;;
11418;SDS011;32800;44.876;13.880;2023-04-25T11:02:44;2.30;;;1.70;;
11418;SDS011;32800;44.876;13.880;2023-04-25T11:07:50;9.17;;;4.07;;
11418;SDS011;32800;44.876;13.880;2023-04-25T11:10:26;16.93;;;6.30;;
11418;SDS011;32800;44.876;13.880;2023-04-25T11:12:52;29.43;;;9.73;;
11418;SDS011;32800;44.876;13.880;2023-04-25T11:15:17;36.50;;;11.63;;
11418;SDS011;32800;44.876;13.880;2023-04-25T11:17:43;46.83;;;13.50;;
11418;SDS011;32800;44.876;13.880;2023-04-25T11:20:11;39.10;;;12.93;;
11418;SDS011;32800;44.876;13.880;2023-04-25T11:22:40;45.47;;;15.70;;
11418;SDS011;32800;44.876;13.880;2023-04-25T11:25:08;50.67;;;15.80;;
11418;SDS011;32800;44.876;13.880;2023-04-25T11:27:48;41.30;;;15.97;;
11418;SDS011;32800;44.876;13.880;2023-04-25T11:30:17;42.57;;;16.07;;
11418;SDS011;32800;44.876;13.880;2023-04-25T11:32:44;44.40;;;16.57;;
11418;SDS011;32800;44.876;13.880;2023-04-25T11:35:10;51.83;;;16.70;;
11418;SDS011;32800;44.876;13.880;2023-04-25T11:37:36;44.27;;;15.30;;
11418;SDS011;32800;44.876;13.880;2023-04-25T11:40:04;42.37;;;14.60;;
11418;SDS011;32800;44.876;13.880;2023-04-25T11:42:33;41.20;;;15.87;;
11418;SDS011;32800;44.876;13.880;2023-04-25T11:44:59;35.77;;;13.77;;
11418;SDS011;32800;44.876;13.880;2023-04-25T11:47:31;37.33;;;13.87;;
11418;SDS011;32800;44.876;13.880;2023-04-25T11:49:58;33.50;;;13.67;;
11418;SDS011;32800;44.876;13.880;2023-04-25T11:52:34;36.67;;;12.90;;
11418;SDS011;32800;44.876;13.880;2023-04-25T11:55:00;35.00;;;13.47;;
11418;SDS011;32800;44.876;13.880;2023-04-25T11:57:26;33.40;;;13.33;;
11418;SDS011;32800;44.876;13.880;2023-04-25T11:59:52;28.63;;;12.37;;
11418;SDS011;32800;44.876;13.880;2023-04-25T12:02:24;29.80;;;12.10;;
11418;SDS011;32800;44.876;13.880;2023-04-25T12:04:50;31.40;;;11.47;;
11418;SDS011;32800;44.876;13.880;2023-04-25T12:07:16;29.50;;;10.63;;
11418;SDS011;32800;44.876;13.880;2023-04-25T12:09:41;28.23;;;11.50;;
11418;SDS011;32800;44.876;13.880;2023-04-25T12:12:09;24.07;;;10.57;;
11418;SDS011;32800;44.876;13.880;2023-04-25T12:14:35;27.93;;;11.10;;
11418;SDS011;32800;44.876;13.880;2023-04-25T12:17:02;21.70;;;9.70;;
11418;SDS011;32800;44.876;13.880;2023-04-25T12:19:32;24.17;;;9.77;;
11418;SDS011;32800;44.876;13.880;2023-04-25T12:21:59;18.93;;;8.53;;
11418;SDS011;32800;44.876;13.880;2023-04-25T12:24:28;19.33;;;8.80;;
11418;SDS011;32800;44.876;13.880;2023-04-25T12:27:04;17.50;;;8.47;;
11418;SDS011;32800;44.876;13.880;2023-04-25T12:29:31;20.90;;;8.73;;
11418;SDS011;32800;44.876;13.880;2023-04-25T12:31:57;16.07;;;7.47;;
11418;SDS011;32800;44.876;13.880;2023-04-25T12:34:23;14.23;;;6.67;;
11418;SDS011;32800;44.876;13.880;2023-04-25T12:36:50;19.60;;;7.50;;
11418;SDS011;32800;44.876;13.880;2023-04-25T12:39:20;15.87;;;7.20;;
11418;SDS011;32800;44.876;13.880;2023-04-25T12:41:50;16.67;;;6.73;;
11418;SDS011;32800;44.876;13.880;2023-04-25T12:44:17;16.13;;;7.30;;
11418;SDS011;32800;44.876;13.880;2023-04-25T12:46:43;15.57;;;6.47;;
11418;SDS011;32800;44.876;13.880;2023-04-25T12:49:08;14.67;;;6.47;;
11418;SDS011;32800;44.876;13.880;2023-04-25T12:51:34;12.27;;;6.17;;
11418;SDS011;32800;44.876;13.880;2023-04-25T12:54:01;12.93;;;6.17;;
11418;SDS011;32800;44.876;13.880;2023-04-25T12:56:27;11.20;;;5.77;;
11418;SDS011;32800;44.876;13.880;2023-04-25T12:58:53;12.37;;;6.60;;
11418;SDS011;32800;44.876;13.880;2023-04-25T13:01:19;12.97;;;6.07;;
11418;SDS011;32800;44.876;13.880;2023-04-25T13:03:48;12.90;;;5.77;;
11418;SDS011;32800;44.876;13.880;2023-04-25T13:06:14;9.33;;;5.90;;
11418;SDS011;32800;44.876;13.880;2023-04-25T13:08:40;8.73;;;5.60;;
11418;SDS011;32800;44.876;13.880;2023-04-25T13:11:06;11.23;;;5.50;;
11418;SDS011;32800;44.876;13.880;2023-04-25T13:13:32;11.07;;;6.00;;
11418;SDS011;32800;44.876;13.880;2023-04-25T13:15:59;8.13;;;5.17;;
11418;SDS011;32800;44.876;13.880;2023-04-25T13:18:27;11.23;;;5.47;;
11418;SDS011;32800;44.876;13.880;2023-04-25T13:20:53;10.80;;;5.43;;
11418;SDS011;32800;44.876;13.880;2023-04-25T13:23:19;11.67;;;5.20;;
11418;SDS011;32800;44.876;13.880;2023-04-25T13:25:45;10.03;;;6.10;;
11418;SDS011;32800;44.876;13.880;2023-04-25T13:28:12;9.93;;;5.30;;
11418;SDS011;32800;44.876;13.880;2023-04-25T13:30:38;9.83;;;4.43;;
11418;SDS011;32800;44.876;13.880;2023-04-25T13:33:04;13.27;;;5.00;;
11418;SDS011;32800;44.876;13.880;2023-04-25T13:35:30;9.47;;;4.93;;
11418;SDS011;32800;44.876;13.880;2023-04-25T13:37:56;12.60;;;5.40;;
11418;SDS011;32800;44.876;13.880;2023-04-25T13:40:21;9.97;;;4.30;;
11418;SDS011;32800;44.876;13.880;2023-04-25T13:42:47;6.90;;;4.03;;
11418;SDS011;32800;44.876;13.880;2023-04-25T13:45:13;7.90;;;4.00;;
11418;SDS011;32800;44.876;13.880;2023-04-25T13:47:39;8.40;;;4.47;;
11418;SDS011;32800;44.876;13.880;2023-04-25T13:50:04;6.17;;;3.90;;
11418;SDS011;32800;44.876;13.880;2023-04-25T13:52:31;8.53;;;4.33;;
11418;SDS011;32800;44.876;13.880;2023-04-25T13:54:57;7.50;;;3.67;;
11418;SDS011;32800;44.876;13.880;2023-04-25T13:57:22;5.67;;;3.63;;
11418;SDS011;32800;44.876;13.880;2023-04-25T13:59:49;7.10;;;3.90;;
11418;SDS011;32800;44.876;13.880;2023-04-25T14:02:15;6.00;;;3.40;;
11418;SDS011;32800;44.876;13.880;2023-04-25T14:04:44;5.83;;;3.33;;
11418;SDS011;32800;44.876;13.880;2023-04-25T14:07:10;5.73;;;3.27;;
11418;SDS011;32800;44.876;13.880;2023-04-25T14:09:36;12.70;;;3.67;;
11418;SDS011;32800;44.876;13.880;2023-04-25T14:12:02;7.53;;;3.10;;
11418;SDS011;32800;44.876;13.880;2023-04-25T14:14:28;6.40;;;3.33;;
11418;SDS011;32800;44.876;13.880;2023-04-25T14:16:53;7.87;;;3.77;;
11418;SDS011;32800;44.876;13.880;2023-04-25T14:19:22;6.63;;;2.87;;
11418;SDS011;32800;44.876;13.880;2023-04-25T14:21:48;6.90;;;2.90;;
11418;SDS011;32800;44.876;13.880;2023-04-25T14:24:14;7.27;;;3.33;;
11418;SDS011;32800;44.876;13.880;2023-04-25T14:26:39;6.37;;;2.90;;
11418;SDS011;32800;44.876;13.880;2023-04-25T14:29:06;4.93;;;2.87;;
11418;SDS011;32800;44.876;13.880;2023-04-25T14:31:32;5.43;;;2.83;;
11418;SDS011;32800;44.876;13.880;2023-04-25T14:33:58;5.20;;;2.80;;
11418;SDS011;32800;44.876;13.880;2023-04-25T14:36:24;6.37;;;2.83;;
11418;SDS011;32800;44.876;13.880;2023-04-25T14:38:51;3.70;;;2.77;;
11418;SDS011;32800;44.876;13.880;2023-04-25T14:41:17;6.30;;;2.83;;
11418;SDS011;32800;44.876;13.880;2023-04-25T14:43:42;5.20;;;2.90;;